Time;durP1;ratioP1;P1;durP2;ratioP2;P2;SDS_P1;SDS_P2;PMS_P1;PMS_P2;Temp;Humidity;BMP_temperature;BMP_pressure;BME280_temperature;BME280_humidity;BME280_pressure;Samples;Min_cycle;Max_cycle;Signal;HPM_P1;HPM_P2
2022/08/06 00:01:22;;;;;;;3.80;3.00;;;;;;;13.61;87.52;99280.25;4201135;28;20040;-71
2022/08/06 00:03:23;;;;;;;4.85;3.50;;;;;;;13.60;87.05;99279.47;4199982;28;20627;-71
2022/08/06 00:05:23;;;;;;;3.55;3.00;;;;;;;13.60;87.40;99287.00;4197819;28;20058;-71
2022/08/06 00:07:25;;;;;;;3.28;2.90;;;;;;;13.61;87.13;99269.13;4200480;28;20036;-71
2022/08/06 00:09:30;;;;;;;4.00;2.72;;;;;;;13.59;87.14;99271.50;4192552;28;20395;-71
2022/08/06 00:11:30;;;;;;;4.40;3.22;;;;;;;13.60;86.46;99275.88;4194965;28;20052;-71
2022/08/06 00:13:30;;;;;;;4.43;3.30;;;;;;;13.59;86.52;99277.06;4201173;28;20864;-71
2022/08/06 00:15:33;;;;;;;4.82;3.00;;;;;;;13.60;86.43;99278.66;4200375;28;20272;-71
2022/08/06 00:17:33;;;;;;;7.43;3.35;;;;;;;13.59;85.97;99277.06;4195317;28;20420;-72
2022/08/06 00:19:33;;;;;;;5.20;3.08;;;;;;;13.60;85.99;99282.25;4194611;28;20349;-71
2022/08/06 00:21:34;;;;;;;3.85;2.85;;;;;;;13.52;85.63;99286.13;4200615;28;20068;-71
2022/08/06 00:23:34;;;;;;;3.92;2.63;;;;;;;13.51;85.82;99286.50;4198094;28;20044;-71
2022/08/06 00:25:35;;;;;;;7.60;2.70;;;;;;;13.42;85.96;99276.47;4200057;28;20051;-71
2022/08/06 00:27:35;;;;;;;3.30;2.70;;;;;;;13.36;86.01;99279.94;4200075;28;20051;-71
2022/08/06 00:29:35;;;;;;;3.17;2.60;;;;;;;13.28;86.46;99273.50;4200779;28;20043;-71
2022/08/06 00:31:36;;;;;;;4.90;3.03;;;;;;;13.24;86.36;99269.06;4199945;28;20040;-71
2022/08/06 00:33:36;;;;;;;6.47;2.70;;;;;;;13.20;86.92;99269.03;4198253;28;20415;-71
2022/08/06 00:35:37;;;;;;;4.28;3.03;;;;;;;13.21;86.35;99270.63;4196686;28;20495;-71
2022/08/06 00:37:37;;;;;;;5.57;2.72;;;;;;;13.21;86.75;99274.19;4199302;28;20087;-71
2022/08/06 00:39:37;;;;;;;4.03;2.97;;;;;;;13.16;87.05;99279.28;4198434;28;20036;-70
2022/08/06 00:41:38;;;;;;;4.28;2.95;;;;;;;13.12;86.74;99283.97;4198404;28;20117;-71
2022/08/06 00:43:38;;;;;;;6.20;2.83;;;;;;;13.08;87.03;99294.22;4202044;28;20199;-71
2022/08/06 00:45:39;;;;;;;4.55;2.88;;;;;;;13.04;87.30;99294.16;4199264;28;20646;-71
2022/08/06 00:47:39;;;;;;;3.47;2.95;;;;;;;13.00;87.19;99301.66;4198886;28;20044;-71
2022/08/06 00:49:39;;;;;;;4.60;2.70;;;;;;;12.99;87.15;99302.84;4200065;28;20075;-71
2022/08/06 00:51:40;;;;;;;4.00;2.72;;;;;;;12.98;87.13;99297.63;4200257;28;20476;-71
2022/08/06 00:53:41;;;;;;;4.15;2.67;;;;;;;13.01;86.91;99299.69;4200626;28;20830;-71
2022/08/06 00:55:41;;;;;;;4.47;2.80;;;;;;;13.00;87.32;99298.09;4199018;28;20444;-71
2022/08/06 00:57:42;;;;;;;3.13;2.78;;;;;;;12.94;86.94;99303.94;4198779;28;20048;-71
2022/08/06 00:59:42;;;;;;;3.47;2.40;;;;;;;12.95;86.91;99301.97;4201246;28;20123;-71
2022/08/06 01:01:42;;;;;;;4.13;2.83;;;;;;;12.92;86.95;99306.31;4199779;28;20040;-71
2022/08/06 01:03:43;;;;;;;3.40;2.60;;;;;;;12.92;86.81;99300.75;4199338;28;20098;-71
2022/08/06 01:05:44;;;;;;;3.72;2.70;;;;;;;12.90;87.12;99305.84;4200340;28;21507;-71
2022/08/06 01:07:44;;;;;;;4.00;2.50;;;;;;;12.91;86.87;99309.47;4199591;28;20055;-71
2022/08/06 01:09:45;;;;;;;6.07;2.85;;;;;;;12.91;86.70;99310.25;4199426;28;20051;-71
2022/08/06 01:11:45;;;;;;;3.20;2.50;;;;;;;12.91;86.55;99310.25;4199628;28;20534;-71
2022/08/06 01:13:45;;;;;;;2.60;2.15;;;;;;;12.94;86.30;99317.03;4200343;28;20048;-71
2022/08/06 01:16:09;;;;;;;6.40;2.88;;;;;;;12.94;86.23;99317.84;4199527;28;20459;-71
2022/08/06 01:18:14;;;;;;;2.83;2.40;;;;;;;12.96;85.94;99333.31;4194935;28;20174;-71
2022/08/06 01:20:34;;;;;;;3.20;2.85;;;;;;;12.98;85.91;99330.97;4196716;28;20368;-71
2022/08/06 01:23:10;;;;;;;4.88;2.33;;;;;;;13.00;85.17;99329.44;4199676;28;20044;-71
2022/08/06 01:25:35;;;;;;;4.70;2.88;;;;;;;13.06;84.94;99335.47;4198556;28;20078;-71
2022/08/06 01:27:49;;;;;;;6.90;2.80;;;;;;;13.05;84.90;99323.53;4199505;28;20557;-71
2022/08/06 01:29:54;;;;;;;10.18;3.00;;;;;;;13.08;84.38;99325.59;4197221;28;20452;-71
2022/08/06 01:32:11;;;;;;;3.90;2.92;;;;;;;13.04;84.39;99332.25;4199902;28;20097;-71
2022/08/06 01:34:32;;;;;;;4.30;2.42;;;;;;;13.07;83.04;99343.41;4198701;28;20112;-71
2022/08/06 01:36:58;;;;;;;4.93;2.35;;;;;;;13.04;82.54;99340.59;4200623;28;20079;-71
2022/08/06 01:39:01;;;;;;;4.15;2.13;;;;;;;13.03;82.46;99337.00;4199058;28;20040;-71
2022/08/06 01:41:04;;;;;;;3.53;1.92;;;;;;;12.99;82.40;99336.16;4200008;28;20399;-71
2022/08/06 01:43:07;;;;;;;4.70;2.60;;;;;;;12.97;82.63;99340.47;4200653;28;20051;-71
2022/08/06 01:45:13;;;;;;;2.63;2.40;;;;;;;12.94;82.52;99334.50;4200244;28;20044;-71
2022/08/06 01:47:16;;;;;;;4.97;2.03;;;;;;;12.92;82.57;99339.63;4201727;28;20073;-71
2022/08/06 01:49:23;;;;;;;3.85;2.13;;;;;;;12.89;82.74;99340.34;4204322;28;20044;-71
2022/08/06 01:51:25;;;;;;;3.45;2.53;;;;;;;12.88;82.33;99338.75;4206196;27;20044;-71
2022/08/06 01:53:30;;;;;;;3.72;2.22;;;;;;;12.85;82.75;99342.28;4197032;28;20067;-71
2022/08/06 01:55:36;;;;;;;3.47;2.30;;;;;;;12.81;82.64;99343.41;4205810;27;20139;-71
2022/08/06 01:57:39;;;;;;;4.22;2.08;;;;;;;12.75;83.00;99337.38;4204073;27;20123;-71
2022/08/06 01:59:45;;;;;;;3.08;2.20;;;;;;;12.76;83.16;99343.72;4203404;28;20075;-71
2022/08/06 02:01:49;;;;;;;2.20;1.80;;;;;;;12.69;83.28;99341.63;4206510;28;20120;-71
2022/08/06 02:03:56;;;;;;;3.45;1.77;;;;;;;12.64;83.41;99347.47;4202342;28;20040;-71
2022/08/06 02:05:58;;;;;;;3.92;2.45;;;;;;;12.60;83.56;99352.19;4203592;28;20058;-71
2022/08/06 02:08:00;;;;;;;;;;;;;;;12.55;83.83;99356.06;4205223;28;20127;-71
2022/08/06 02:10:03;;;;;;;2.88;1.80;;;;;;;12.49;83.09;99354.75;4205403;28;19965;-71
2022/08/06 02:12:09;;;;;;;2.72;1.90;;;;;;;12.49;82.66;99362.28;4203684;28;20055;-71
2022/08/06 02:14:14;;;;;;;4.97;2.33;;;;;;;12.47;82.82;99350.75;4204555;28;20210;-71
2022/08/06 02:16:15;;;;;;;1.90;1.65;;;;;;;12.41;83.00;99366.09;4203935;28;20028;-71
2022/08/06 02:18:18;;;;;;;4.07;1.98;;;;;;;12.32;83.69;99361.59;4204081;28;20371;-71
2022/08/06 02:20:25;;;;;;;3.08;2.00;;;;;;;12.27;84.05;99361.09;4205940;27;20020;-71
2022/08/06 02:22:28;;;;;;;2.50;1.95;;;;;;;12.24;83.88;99370.94;4206223;28;20040;-71
2022/08/06 02:24:31;;;;;;;3.50;2.10;;;;;;;12.17;84.21;99370.03;4202912;28;20047;-71
2022/08/06 02:26:34;;;;;;;2.33;1.90;;;;;;;12.13;84.66;99375.50;4205509;28;20127;-71
2022/08/06 02:28:37;;;;;;;4.03;2.20;;;;;;;12.08;84.93;99371.06;4203147;28;20572;-71
2022/08/06 02:30:40;;;;;;;;;;;;;;;12.04;85.21;99375.72;4204046;28;20063;-71
2022/08/06 02:32:41;;;;;;;2.00;1.80;;;;;;;11.97;85.28;99377.56;4204638;28;20306;-71
2022/08/06 02:34:42;;;;;;;2.63;1.90;;;;;;;11.92;85.29;99375.88;4204369;27;20564;-71
2022/08/06 02:36:48;;;;;;;6.45;2.20;;;;;;;11.89;85.79;99384.13;4205065;28;20064;-71
2022/08/06 02:38:55;;;;;;;3.67;2.20;;;;;;;11.81;85.72;99383.97;4204445;27;20094;-71
2022/08/06 02:41:07;;;;;;;3.95;2.20;;;;;;;11.79;85.77;99379.94;4204788;28;20123;-71
2022/08/06 02:43:15;;;;;;;4.47;2.35;;;;;;;11.75;85.30;99376.25;4204813;28;20036;-71
2022/08/06 02:45:30;;;;;;;3.15;2.45;;;;;;;11.72;85.23;99382.56;4204581;28;20051;-71
2022/08/06 02:47:42;;;;;;;2.28;1.98;;;;;;;11.69;85.25;99378.53;4205965;28;20404;-71
2022/08/06 02:49:47;;;;;;;3.35;2.00;;;;;;;11.68;85.13;99368.63;4202622;28;20391;-71
2022/08/06 02:51:54;;;;;;;8.38;2.38;;;;;;;11.64;85.36;99373.28;4203767;28;20215;-71
2022/08/06 02:54:00;;;;;;;5.18;2.03;;;;;;;11.60;85.39;99364.09;4204030;28;20048;-71
2022/08/06 02:56:08;;;;;;;4.03;2.20;;;;;;;11.59;86.05;99373.59;4203717;27;20527;-71
2022/08/06 02:58:25;;;;;;;2.40;2.00;;;;;;;11.56;86.47;99379.84;4204608;28;20043;-71
2022/08/06 03:00:27;;;;;;;3.05;2.20;;;;;;;11.51;86.53;99382.91;4202627;28;20036;-71
2022/08/06 03:02:29;;;;;;;3.67;2.28;;;;;;;11.43;86.60;99381.13;4204205;28;20082;-71
2022/08/06 03:04:33;;;;;;;4.80;3.65;;;;;;;11.39;87.30;99391.31;4202607;28;20868;-71
2022/08/06 03:06:36;;;;;;;2.90;1.77;;;;;;;11.35;87.80;99393.22;4204360;28;20442;-71
2022/08/06 03:08:36;;;;;;;2.60;1.73;;;;;;;11.32;87.76;99385.63;4202540;28;20474;-71
2022/08/06 03:10:37;;;;;;;4.25;2.17;;;;;;;11.32;88.29;99388.38;4201444;28;20047;-71
2022/08/06 03:12:38;;;;;;;2.83;2.25;;;;;;;11.27;88.26;99388.69;4203680;28;20697;-71
2022/08/06 03:14:40;;;;;;;4.72;2.30;;;;;;;11.23;88.52;99391.34;4203490;28;20427;-71
2022/08/06 03:16:41;;;;;;;2.15;1.95;;;;;;;11.16;88.67;99394.75;4204088;28;20238;-71
2022/08/06 03:18:45;;;;;;;3.13;2.40;;;;;;;11.11;89.08;99397.81;4202693;28;20082;-71
2022/08/06 03:20:46;;;;;;;2.72;1.90;;;;;;;11.08;88.45;99401.28;4203823;28;20135;-71
2022/08/06 03:22:50;;;;;;;2.60;2.03;;;;;;;11.04;88.28;99402.38;4202437;28;20108;-71
2022/08/06 03:24:52;;;;;;;2.75;2.00;;;;;;;11.02;88.01;99402.75;4202839;28;20377;-71
2022/08/06 03:27:03;;;;;;;1.95;1.75;;;;;;;11.01;88.31;99403.09;4202181;28;20052;-70
2022/08/06 03:29:04;;;;;;;3.30;2.00;;;;;;;10.94;89.08;99400.97;4203413;28;20477;-71
2022/08/06 03:31:06;;;;;;;2.30;1.73;;;;;;;10.88;88.78;99407.91;4200675;28;20063;-71
2022/08/06 03:33:11;;;;;;;5.18;2.17;;;;;;;10.84;88.68;99412.53;4202743;28;20040;-71
2022/08/06 03:35:12;;;;;;;4.00;2.20;;;;;;;10.81;88.61;99410.50;4202201;28;20151;-71
2022/08/06 03:37:16;;;;;;;2.95;1.73;;;;;;;10.77;88.42;99415.97;4203636;28;20047;-70
2022/08/06 03:39:18;;;;;;;4.30;2.20;;;;;;;10.73;88.53;99415.06;4201423;28;20540;-71
2022/08/06 03:41:18;;;;;;;2.00;1.80;;;;;;;10.71;88.81;99420.16;4203381;28;20048;-70
2022/08/06 03:43:19;;;;;;;2.13;1.92;;;;;;;10.67;88.52;99428.38;4202501;28;20155;-71
2022/08/06 03:45:19;;;;;;;3.53;2.03;;;;;;;10.66;88.83;99423.16;4202911;28;20044;-70
2022/08/06 03:47:32;;;;;;;2.38;1.80;;;;;;;10.65;88.33;99429.88;4202989;28;20044;-71
2022/08/06 03:49:37;;;;;;;3.70;2.10;;;;;;;10.61;88.70;99432.56;4201897;28;20480;-70
2022/08/06 03:51:39;;;;;;;2.17;1.98;;;;;;;10.60;88.33;99433.72;4202433;28;20475;-71
2022/08/06 03:53:42;;;;;;;2.95;2.15;;;;;;;10.59;88.63;99434.88;4202642;28;20040;-71
2022/08/06 03:55:44;;;;;;;5.28;2.40;;;;;;;10.58;89.11;99444.31;4202851;28;20089;-71
2022/08/06 03:57:48;;;;;;;7.57;2.70;;;;;;;10.57;89.08;99441.91;4203061;28;20059;-71
2022/08/06 03:59:51;;;;;;;2.55;2.03;;;;;;;10.55;89.03;99449.75;4200686;28;20060;-71
2022/08/06 04:01:53;;;;;;;4.47;2.13;;;;;;;10.53;89.98;99452.09;4203647;28;20036;-72
2022/08/06 04:03:55;;;;;;;3.00;2.55;;;;;;;10.52;90.01;99456.81;4202912;28;20052;-72
2022/08/06 04:05:57;;;;;;;2.75;2.55;;;;;;;10.51;89.65;99466.28;4201870;28;20079;-72
2022/08/06 04:07:59;;;;;;;2.47;2.20;;;;;;;10.51;89.98;99465.44;4201329;28;20066;-71
2022/08/06 04:10:01;;;;;;;5.70;2.40;;;;;;;10.51;89.66;99459.91;4202459;28;20044;-71
2022/08/06 04:12:02;;;;;;;3.92;2.15;;;;;;;10.49;89.87;99470.53;4202332;28;20210;-71
2022/08/06 04:14:04;;;;;;;2.38;2.00;;;;;;;10.52;89.70;99467.88;4201723;28;20055;-71
2022/08/06 04:16:06;;;;;;;2.40;2.20;;;;;;;10.50;89.42;99467.41;4200044;28;20051;-71
2022/08/06 04:18:16;;;;;;;2.60;2.05;;;;;;;10.51;89.81;99471.81;4202999;28;20275;-71
2022/08/06 04:20:20;;;;;;;3.20;2.08;;;;;;;10.49;90.37;99476.88;4201863;28;20435;-71
2022/08/06 04:22:20;;;;;;;4.47;2.38;;;;;;;10.48;90.02;99478.03;4202620;28;20035;-72
2022/08/06 04:24:21;;;;;;;3.55;2.03;;;;;;;10.43;90.71;99475.53;4201411;28;20056;-72
2022/08/06 04:26:23;;;;;;;4.82;2.20;;;;;;;10.38;90.37;99471.06;4202920;28;20433;-71
2022/08/06 04:28:26;;;;;;;2.47;2.20;;;;;;;10.38;90.48;99484.09;4201469;28;20062;-71
2022/08/06 04:30:28;;;;;;;2.58;2.00;;;;;;;10.35;90.30;99491.13;4202682;28;20128;-71
2022/08/06 04:32:29;;;;;;;2.25;1.80;;;;;;;10.31;90.69;99492.97;4202862;28;20043;-70
2022/08/06 04:34:30;;;;;;;2.42;1.63;;;;;;;10.32;90.67;99488.25;4200907;28;20115;-71
2022/08/06 04:36:31;;;;;;;3.78;2.00;;;;;;;10.34;90.37;99491.47;4203867;28;20040;-70
2022/08/06 04:38:33;;;;;;;3.60;2.30;;;;;;;10.38;90.08;99495.16;4201506;28;20058;-71
2022/08/06 04:40:33;;;;;;;4.37;1.77;;;;;;;10.42;90.26;99504.34;4203007;28;20093;-71
2022/08/06 04:42:34;;;;;;;2.20;1.90;;;;;;;10.49;89.17;99503.75;4201134;28;20127;-71
2022/08/06 04:44:35;;;;;;;3.13;1.77;;;;;;;10.51;88.48;99505.03;4201991;28;20051;-71
2022/08/06 04:46:37;;;;;;;3.10;2.00;;;;;;;10.57;87.98;99509.13;4201824;28;20082;-71
2022/08/06 04:48:38;;;;;;;3.47;2.10;;;;;;;10.61;87.97;99498.97;4200262;28;20040;-71
2022/08/06 04:50:39;;;;;;;5.85;3.05;;;;;;;10.71;87.21;99508.72;4200386;28;20052;-71
2022/08/06 04:52:39;;;;;;;3.85;1.80;;;;;;;10.79;86.58;99506.94;4202615;28;20485;-71
2022/08/06 04:54:40;;;;;;;2.30;2.00;;;;;;;10.81;86.24;99515.69;4199473;28;20050;-71
2022/08/06 04:56:42;;;;;;;2.20;1.90;;;;;;;10.75;86.28;99520.69;4201942;28;20127;-70
2022/08/06 04:58:43;;;;;;;6.10;2.22;;;;;;;10.75;86.62;99522.66;4202240;28;20086;-71
2022/08/06 05:00:45;;;;;;;2.58;1.90;;;;;;;10.80;85.88;99531.50;4200749;28;20048;-71
2022/08/06 05:02:46;;;;;;;2.28;2.00;;;;;;;10.79;85.72;99527.13;4199834;28;20044;-71
2022/08/06 05:04:53;;;;;;;2.40;2.20;;;;;;;10.84;85.49;99523.28;4195294;28;20543;-71
2022/08/06 05:06:59;;;;;;;4.38;2.30;;;;;;;10.90;86.26;99535.72;4201458;28;20044;-72
2022/08/06 05:09:04;;;;;;;2.45;1.92;;;;;;;10.90;87.16;99530.97;4198088;28;20681;-71
2022/08/06 05:11:26;;;;;;;5.50;1.77;;;;;;;10.97;86.45;99531.19;4197620;28;20039;-69
2022/08/06 05:13:33;;;;;;;2.90;2.00;;;;;;;11.09;86.11;99540.56;4199725;28;20040;-71
2022/08/06 05:15:40;;;;;;;3.78;1.88;;;;;;;11.22;85.73;99540.13;4195080;28;20633;-71
2022/08/06 05:17:51;;;;;;;2.50;2.10;;;;;;;11.28;85.45;99543.47;4202275;28;20483;-71
2022/08/06 05:20:00;;;;;;;2.67;2.35;;;;;;;11.31;85.06;99551.03;4200258;28;20520;-71
2022/08/06 05:22:02;;;;;;;4.03;2.00;;;;;;;11.41;85.04;99546.94;4196951;28;20036;-71
2022/08/06 05:24:03;;;;;;;3.28;2.40;;;;;;;11.46;85.00;99552.22;4199948;28;20256;-72
2022/08/06 05:26:03;;;;;;;8.85;2.50;;;;;;;11.46;84.50;99560.53;4198431;28;20119;-71
2022/08/06 05:28:07;;;;;;;6.85;2.40;;;;;;;11.48;84.78;99558.19;4200425;28;20121;-71
2022/08/06 05:30:09;;;;;;;2.80;2.00;;;;;;;11.54;84.99;99557.56;4195513;28;20523;-72
2022/08/06 05:32:09;;;;;;;2.80;2.22;;;;;;;11.63;84.23;99562.13;4195948;28;20063;-71
2022/08/06 05:34:11;;;;;;;2.92;2.30;;;;;;;11.68;83.26;99551.59;4197862;28;20178;-71
2022/08/06 05:36:12;;;;;;;2.13;1.92;;;;;;;11.70;82.82;99551.22;4196017;28;20024;-70
2022/08/06 05:38:12;;;;;;;3.00;2.40;;;;;;;11.79;82.44;99549.06;4191414;28;20023;-71
2022/08/06 05:40:13;;;;;;;3.13;2.03;;;;;;;11.87;82.51;99555.59;4196270;28;20290;-71
2022/08/06 05:42:13;;;;;;;2.00;1.80;;;;;;;11.96;81.53;99565.34;4196850;28;20058;-71
2022/08/06 05:44:13;;;;;;;2.55;1.60;;;;;;;11.99;80.88;99559.06;4199724;28;20183;-71
2022/08/06 05:46:20;;;;;;;4.20;1.92;;;;;;;12.05;80.58;99563.16;4134374;28;20031;-71
2022/08/06 05:48:22;;;;;;;3.03;1.70;;;;;;;12.11;80.00;99560.94;4197481;28;20276;-71
2022/08/06 05:50:28;;;;;;;2.70;1.85;;;;;;;12.15;79.84;99561.78;4200121;28;20046;-71
2022/08/06 05:52:37;;;;;;;1.88;1.65;;;;;;;12.22;80.13;99561.97;4201675;28;20040;-71
2022/08/06 05:55:00;;;;;;;3.47;1.95;;;;;;;12.27;79.52;99563.66;4197480;28;20048;-71
2022/08/06 05:57:09;;;;;;;3.80;1.90;;;;;;;12.32;79.43;99557.81;4199669;28;20480;-71
2022/08/06 05:59:17;;;;;;;2.95;1.70;;;;;;;12.40;79.84;99564.31;4200445;28;20380;-71
2022/08/06 06:01:18;;;;;;;2.33;1.67;;;;;;;12.47;78.74;99558.91;4197311;28;20143;-71
2022/08/06 06:03:21;;;;;;;2.50;1.30;;;;;;;12.52;76.53;99556.66;4200401;28;20455;-71
2022/08/06 06:05:24;;;;;;;7.22;1.73;;;;;;;12.60;76.02;99563.16;4198665;28;20116;-71
2022/08/06 06:07:24;;;;;;;3.58;1.73;;;;;;;12.57;75.83;99559.13;4199539;28;20507;-71
2022/08/06 06:09:25;;;;;;;2.13;1.70;;;;;;;12.67;75.96;99556.97;4191345;28;20039;-71
2022/08/06 06:11:31;;;;;;;3.45;1.40;;;;;;;12.72;76.69;99553.88;4200459;28;20036;-71
2022/08/06 06:13:32;;;;;;;2.00;1.30;;;;;;;12.81;75.87;99565.56;4198659;28;20050;-71
2022/08/06 06:15:40;;;;;;;2.70;1.42;;;;;;;12.79;75.38;99562.34;4199454;28;20456;-71
2022/08/06 06:18:06;;;;;;;3.00;1.60;;;;;;;12.91;74.55;99568.56;4199405;28;20044;-71
2022/08/06 06:20:20;;;;;;;3.17;1.83;;;;;;;12.94;74.55;99570.59;4199136;28;20044;-71
2022/08/06 06:22:37;;;;;;;1.42;1.30;;;;;;;13.06;74.86;99572.41;4200681;28;20964;-71
2022/08/06 06:24:45;;;;;;;2.72;1.40;;;;;;;13.10;73.65;99572.47;4193848;28;20052;-71
2022/08/06 06:26:54;;;;;;;1.88;1.27;;;;;;;13.14;73.93;99568.59;4198468;28;20048;-71
2022/08/06 06:29:04;;;;;;;1.75;1.38;;;;;;;13.21;74.27;99570.72;4198529;28;20445;-71
2022/08/06 06:31:28;;;;;;;2.97;1.40;;;;;;;13.30;72.33;99574.06;4200697;28;20453;-71
2022/08/06 06:34:01;;;;;;;3.30;1.70;;;;;;;13.34;71.97;99580.50;4197406;28;20075;-71
2022/08/06 06:36:09;;;;;;;4.00;1.73;;;;;;;13.46;70.28;99585.88;4203859;28;20056;-71
2022/08/06 06:38:43;;;;;;;3.17;1.38;;;;;;;13.48;70.77;99580.75;4205026;28;20031;-71
2022/08/06 06:41:08;;;;;;;1.65;1.15;;;;;;;13.57;71.51;99586.06;4203831;28;20048;-71
2022/08/06 06:43:14;;;;;;;2.03;1.67;;;;;;;13.65;70.27;99581.41;4203847;28;20048;-71
2022/08/06 06:45:20;;;;;;;1.73;1.27;;;;;;;13.68;70.53;99584.28;4198445;28;20047;-71
2022/08/06 06:47:23;;;;;;;2.83;1.23;;;;;;;13.76;70.50;99583.22;4204835;28;20051;-71
2022/08/06 06:49:44;;;;;;;1.50;1.20;;;;;;;13.87;70.76;99594.50;4202814;28;20044;-71
2022/08/06 06:51:50;;;;;;;1.75;1.40;;;;;;;13.97;68.00;99577.16;4202363;28;20044;-71
2022/08/06 06:53:51;;;;;;;3.03;1.58;;;;;;;14.06;67.85;99586.03;4202329;28;20067;-71
2022/08/06 06:55:55;;;;;;;1.98;1.40;;;;;;;14.10;67.58;99579.75;4201873;28;20381;-71
2022/08/06 06:58:10;;;;;;;3.42;1.45;;;;;;;14.19;68.75;99588.63;4203537;28;20047;-71
2022/08/06 07:00:12;;;;;;;3.35;1.30;;;;;;;14.29;67.35;99594.34;4203240;28;20134;-71
2022/08/06 07:02:19;;;;;;;3.50;1.50;;;;;;;14.36;65.91;99590.06;4202627;28;20500;-71
2022/08/06 07:04:23;;;;;;;4.95;1.70;;;;;;;14.40;66.87;99596.47;4201737;28;20024;-71
2022/08/06 07:06:25;;;;;;;3.63;1.75;;;;;;;14.42;65.79;99597.72;4202364;28;20108;-71
2022/08/06 07:08:28;;;;;;;1.95;1.48;;;;;;;14.49;66.77;99597.84;4201636;28;20047;-71
2022/08/06 07:10:30;;;;;;;2.35;1.17;;;;;;;14.53;66.58;99600.66;4203650;28;20141;-71
2022/08/06 07:12:34;;;;;;;1.60;1.13;;;;;;;14.50;65.64;99598.66;4202858;28;20236;-71
2022/08/06 07:14:37;;;;;;;1.88;1.35;;;;;;;14.49;65.78;99597.84;4202378;28;20147;-71
2022/08/06 07:16:40;;;;;;;2.15;1.38;;;;;;;14.59;66.14;99602.75;4202101;28;20079;-71
2022/08/06 07:18:42;;;;;;;1.40;1.00;;;;;;;14.66;64.54;99601.25;4202673;28;20052;-71
2022/08/06 07:20:44;;;;;;;5.32;1.40;;;;;;;14.69;64.69;99598.50;4203207;28;20045;-71
2022/08/06 07:22:45;;;;;;;4.82;1.33;;;;;;;14.82;65.51;99605.44;4203774;28;20044;-71
2022/08/06 07:24:48;;;;;;;4.90;1.10;;;;;;;14.94;64.13;99601.59;4202785;28;20446;-71
2022/08/06 07:26:50;;;;;;;1.85;1.17;;;;;;;15.05;61.97;99601.72;4200916;28;20297;-71
2022/08/06 07:28:53;;;;;;;4.95;1.55;;;;;;;15.12;63.06;99605.38;4201977;28;20406;-71
2022/08/06 07:30:54;;;;;;;2.65;1.30;;;;;;;15.15;63.56;99595.47;4201922;28;20650;-71
2022/08/06 07:32:54;;;;;;;2.35;1.08;;;;;;;15.21;63.71;99605.06;4203445;28;20044;-71
2022/08/06 07:34:57;;;;;;;1.13;1.02;;;;;;;15.29;62.07;99608.75;4201060;28;20048;-71
2022/08/06 07:36:58;;;;;;;2.20;1.13;;;;;;;15.30;61.48;99600.00;4202722;28;20047;-71
2022/08/06 07:39:03;;;;;;;1.83;1.23;;;;;;;15.37;60.03;99608.44;4203006;28;20800;-71
2022/08/06 07:41:05;;;;;;;2.50;1.00;;;;;;;15.39;60.07;99599.69;4203850;28;20051;-71
2022/08/06 07:43:13;;;;;;;2.67;1.30;;;;;;;15.48;60.61;99608.56;4203784;28;20427;-71
2022/08/06 07:45:15;;;;;;;1.52;1.17;;;;;;;15.52;60.38;99611.38;4216491;28;20506;-71
2022/08/06 07:47:22;;;;;;;1.70;1.00;;;;;;;15.57;58.97;99613.81;4201346;28;20040;-71
2022/08/06 07:49:28;;;;;;;3.65;1.25;;;;;;;15.78;60.76;99614.03;4199668;28;20052;-71
2022/08/06 07:51:32;;;;;;;1.67;1.10;;;;;;;15.71;59.84;99611.97;4197385;28;20045;-70
2022/08/06 07:53:34;;;;;;;1.73;1.10;;;;;;;15.77;58.94;99615.22;4196571;28;20836;-71
2022/08/06 07:55:36;;;;;;;2.10;1.10;;;;;;;15.70;58.30;99620.72;4194566;28;20049;-71
2022/08/06 07:57:37;;;;;;;1.42;1.08;;;;;;;15.75;58.86;99617.59;4198759;28;20180;-71
2022/08/06 07:59:40;;;;;;;1.48;1.17;;;;;;;15.88;59.25;99618.88;4196302;28;20531;-71
2022/08/06 08:01:40;;;;;;;1.52;1.08;;;;;;;16.08;58.29;99621.47;4192284;28;20101;-71
2022/08/06 08:06:23;;;;;;;2.45;1.20;;;;;;;16.29;57.70;99624.38;4199826;28;20115;-71
2022/08/06 08:08:25;;;;;;;1.38;1.20;;;;;;;16.34;57.63;99617.63;4200003;28;20056;-71
2022/08/06 08:10:26;;;;;;;1.50;0.85;;;;;;;16.34;54.83;99626.03;4201699;28;20509;-71
2022/08/06 08:12:27;;;;;;;1.15;1.00;;;;;;;16.35;55.08;99619.25;4202443;28;20320;-71
2022/08/06 08:14:28;;;;;;;1.20;0.80;;;;;;;16.44;55.50;99626.09;4200198;28;20075;-71
2022/08/06 08:16:29;;;;;;;2.55;0.98;;;;;;;16.44;56.05;99616.91;4200337;28;20040;-71
2022/08/06 08:18:31;;;;;;;1.88;0.93;;;;;;;16.64;56.95;99621.03;4202269;28;20151;-71
2022/08/06 08:20:34;;;;;;;1.02;0.93;;;;;;;16.74;55.09;99620.31;4200232;28;20048;-71
2022/08/06 08:22:35;;;;;;;1.70;1.00;;;;;;;16.97;55.56;99622.81;4200624;28;20111;-71
2022/08/06 08:24:38;;;;;;;2.28;1.35;;;;;;;17.13;55.24;99622.47;4198813;28;20048;-71
2022/08/06 08:26:38;;;;;;;4.18;0.93;;;;;;;17.04;52.69;99627.59;4201810;28;20059;-71
2022/08/06 08:28:39;;;;;;;0.65;0.63;;;;;;;16.83;51.16;99620.75;4198637;28;20040;-71
2022/08/06 08:30:40;;;;;;;2.50;0.90;;;;;;;16.63;50.30;99615.81;4200166;28;20115;-71
2022/08/06 08:32:40;;;;;;;2.45;0.95;;;;;;;16.39;50.96;99614.50;4201245;28;20684;-71
2022/08/06 08:34:40;;;;;;;1.65;0.80;;;;;;;16.27;52.27;99616.41;4199925;28;20040;-71
2022/08/06 08:36:41;;;;;;;1.27;0.80;;;;;;;16.45;52.51;99616.50;4201256;28;20906;-71
2022/08/06 08:38:41;;;;;;;1.58;1.00;;;;;;;16.66;52.60;99617.84;4200464;28;20491;-71
2022/08/06 08:40:42;;;;;;;2.88;0.90;;;;;;;16.80;52.44;99618.75;4201104;28;20044;-71
2022/08/06 08:42:45;;;;;;;3.25;1.27;;;;;;;16.87;53.03;99614.34;4200516;28;20047;-71
2022/08/06 08:44:48;;;;;;;4.03;1.00;;;;;;;16.89;53.28;99621.19;4199316;28;20251;-71
2022/08/06 08:46:49;;;;;;;1.08;0.85;;;;;;;17.04;52.91;99622.81;4201073;28;20444;-71
2022/08/06 08:48:50;;;;;;;1.23;0.70;;;;;;;17.25;50.72;99622.09;4197932;28;20135;-71
2022/08/06 08:50:52;;;;;;;1.13;0.80;;;;;;;17.41;48.64;99611.34;4201482;28;20078;-71
2022/08/06 08:53:00;;;;;;;4.03;1.30;;;;;;;17.37;49.89;99621.72;4202420;28;20082;-72
2022/08/06 08:55:03;;;;;;;1.33;0.90;;;;;;;17.41;49.80;99618.94;4197101;28;20056;-72
2022/08/06 08:57:05;;;;;;;1.30;0.93;;;;;;;17.33;48.66;99623.72;4198234;28;20052;-71
2022/08/06 08:59:05;;;;;;;1.55;1.27;;;;;;;17.41;48.58;99614.13;4200886;28;20043;-71
2022/08/06 09:01:08;;;;;;;1.50;0.73;;;;;;;17.46;46.68;99612.97;4199727;28;20515;-71
2022/08/06 09:03:08;;;;;;;;;;;;;;;17.41;47.55;99616.94;4201459;28;20044;-71
2022/08/06 09:05:09;;;;;;;1.02;0.70;;;;;;;17.55;48.04;99618.16;4201545;28;19963;-71
2022/08/06 09:07:10;;;;;;;2.65;0.75;;;;;;;17.50;48.72;99608.16;4197456;28;20706;-71
2022/08/06 09:09:10;;;;;;;1.00;0.80;;;;;;;17.57;47.48;99612.97;4199233;28;20113;-71
2022/08/06 09:11:11;;;;;;;1.60;0.80;;;;;;;17.51;48.73;99620.94;4199052;28;20028;-71
2022/08/06 09:13:11;;;;;;;1.95;0.80;;;;;;;17.33;47.02;99617.31;4200076;28;20040;-71
2022/08/06 09:15:12;;;;;;;2.53;0.70;;;;;;;17.36;46.53;99610.91;4198739;28;20048;-71
2022/08/06 09:17:13;;;;;;;2.22;0.90;;;;;;;17.43;46.57;99619.31;4199321;28;20486;-71
2022/08/06 09:19:14;;;;;;;0.90;0.70;;;;;;;17.56;45.38;99622.56;4199726;28;20043;-71
2022/08/06 09:21:14;;;;;;;2.92;1.25;;;;;;;17.46;46.30;99615.75;4198262;28;20693;-71
2022/08/06 09:23:16;;;;;;;1.02;0.93;;;;;;;17.56;47.31;99616.97;4199836;28;20045;-71
2022/08/06 09:25:36;;;;;;;3.33;0.80;;;;;;;17.77;47.45;99628.19;4199692;28;20223;-72
2022/08/06 09:27:37;;;;;;;1.95;0.70;;;;;;;17.74;44.77;99615.00;4199568;28;20160;-72
2022/08/06 09:29:51;;;;;;;1.00;0.70;;;;;;;17.77;43.95;99616.19;4198332;28;20586;-72
2022/08/06 09:31:52;;;;;;;1.40;0.85;;;;;;;17.91;45.29;99616.22;4198417;28;20060;-72
2022/08/06 09:33:54;;;;;;;1.95;0.75;;;;;;;18.03;45.44;99615.00;4201241;28;20050;-72
2022/08/06 09:36:06;;;;;;;2.55;0.93;;;;;;;17.99;44.06;99617.03;4198369;28;20136;-72
2022/08/06 09:38:09;;;;;;;1.05;0.85;;;;;;;17.97;45.22;99614.63;4201318;28;20040;-71
2022/08/06 09:40:17;;;;;;;1.42;0.80;;;;;;;18.07;44.55;99613.81;4198853;28;20024;-71
2022/08/06 09:42:36;;;;;;;2.45;0.82;;;;;;;17.95;44.89;99612.19;4196028;28;20226;-71
2022/08/06 09:44:36;;;;;;;1.40;0.90;;;;;;;18.10;44.08;99618.59;4192856;28;20097;-71
2022/08/06 09:46:41;;;;;;;1.17;0.63;;;;;;;18.23;43.29;99611.41;4195109;28;20040;-71
2022/08/06 09:48:58;;;;;;;1.65;0.90;;;;;;;18.34;44.67;99619.78;4192619;28;20046;-71